Time;durP1;ratioP1;P1;durP2;ratioP2;P2;SDS_P1;SDS_P2;PMS_P1;PMS_P2;Temp;Humidity;BMP_temperature;BMP_pressure;BME280_temperature;BME280_humidity;BME280_pressure;Samples;Min_cycle;Max_cycle;Signal;HPM_P1;HPM_P2
2021/03/12 00:00:12;;;;;;;11.45;1.73;;;;;;;6.43;100.00;100574.19;5144180;28;20038;-85
2021/03/12 00:02:43;;;;;;;9.40;1.30;;;;;;;6.36;100.00;100568.59;5144539;28;20103;-85
2021/03/12 00:05:14;;;;;;;11.35;1.85;;;;;;;6.39;100.00;100584.31;5145532;28;20026;-85
2021/03/12 00:07:45;;;;;;;5.50;1.38;;;;;;;6.34;100.00;100575.91;5145601;28;20054;-85
2021/03/12 00:10:19;;;;;;;8.50;1.83;;;;;;;6.37;100.00;100590.75;5144280;28;20398;-85
2021/03/12 00:12:50;;;;;;;9.52;1.88;;;;;;;6.36;100.00;100587.25;5144346;28;20389;-85
2021/03/12 00:15:21;;;;;;;15.35;1.75;;;;;;;6.38;100.00;100587.97;5144995;28;20030;-85
2021/03/12 00:17:52;;;;;;;9.45;1.17;;;;;;;6.37;100.00;100601.41;5143920;28;20113;-85
2021/03/12 00:20:26;;;;;;;10.05;1.50;;;;;;;6.31;100.00;100602.84;5159218;28;20118;-85
2021/03/12 00:22:57;;;;;;;12.50;2.00;;;;;;;6.31;100.00;100604.66;5145387;28;20104;-85
2021/03/12 00:25:36;;;;;;;10.85;1.92;;;;;;;6.35;100.00;100603.38;5143381;28;20501;-85
2021/03/12 00:28:08;;;;;;;8.27;1.25;;;;;;;6.26;100.00;100606.91;5144580;28;20027;-85
2021/03/12 00:30:40;;;;;;;21.58;2.45;;;;;;;6.25;100.00;100610.56;5143523;28;20120;-85
2021/03/12 00:33:12;;;;;;;12.18;1.40;;;;;;;6.21;100.00;100631.31;5139237;28;20065;-84
2021/03/12 00:35:44;;;;;;;11.57;2.15;;;;;;;6.15;100.00;100623.91;5144516;28;20023;-84
2021/03/12 00:38:15;;;;;;;11.02;1.73;;;;;;;6.12;100.00;100640.16;5143716;28;20029;-85
2021/03/12 00:40:51;;;;;;;10.88;1.70;;;;;;;6.13;100.00;100648.03;5143719;28;20018;-85
2021/03/12 00:43:22;;;;;;;11.20;1.75;;;;;;;6.12;100.00;100650.81;5142389;28;20382;-84
2021/03/12 00:45:57;;;;;;;13.70;2.88;;;;;;;6.16;100.00;100646.88;5144168;28;20030;-84
2021/03/12 00:48:28;;;;;;;11.50;2.00;;;;;;;6.16;100.00;100658.38;5144775;28;20027;-85
2021/03/12 00:50:59;;;;;;;6.88;1.88;;;;;;;6.09;100.00;100664.44;5143348;28;20033;-85
2021/03/12 00:53:29;;;;;;;13.52;2.42;;;;;;;5.98;100.00;100665.44;5143617;28;20058;-85
2021/03/12 00:56:00;;;;;;;20.20;2.13;;;;;;;5.91;100.00;100664.25;5144295;28;20076;-85
2021/03/12 00:58:30;;;;;;;18.67;2.95;;;;;;;5.82;100.00;100662.44;5165945;28;20118;-85
2021/03/12 01:01:01;;;;;;;18.42;2.38;;;;;;;5.75;100.00;100664.81;5167996;28;20074;-84
2021/03/12 01:03:31;;;;;;;17.70;2.15;;;;;;;5.65;100.00;100672.81;5151977;28;20041;-84
2021/03/12 01:06:02;;;;;;;9.23;1.73;;;;;;;5.64;100.00;100675.59;5142775;28;20058;-85
2021/03/12 01:08:32;;;;;;;19.08;2.78;;;;;;;5.60;100.00;100669.72;5160919;28;20085;-85
2021/03/12 01:11:03;;;;;;;20.77;2.05;;;;;;;5.58;100.00;100679.66;5145573;28;20050;-85
2021/03/12 01:13:33;;;;;;;21.52;4.05;;;;;;;5.58;100.00;100671.69;5145649;28;20031;-85
2021/03/12 01:16:04;;;;;;;15.43;4.15;;;;;;;5.57;100.00;100666.47;5145366;28;20019;-85
2021/03/12 01:18:35;;;;;;;19.60;2.38;;;;;;;5.52;100.00;100680.19;5146459;28;20442;-85
2021/03/12 01:21:05;;;;;;;21.60;2.78;;;;;;;5.56;100.00;100670.97;5145736;28;20042;-85
2021/03/12 01:23:36;;;;;;;16.63;1.95;;;;;;;5.60;100.00;100672.38;5145875;28;20046;-85
2021/03/12 01:26:07;;;;;;;14.98;2.80;;;;;;;5.61;100.00;100684.69;5146442;28;20035;-85
2021/03/12 01:28:37;;;;;;;13.93;2.50;;;;;;;5.68;100.00;100685.00;5146411;28;20058;-85
2021/03/12 01:31:07;;;;;;;14.70;2.70;;;;;;;5.57;100.00;100675.34;5139855;28;20031;-85
2021/03/12 01:33:38;;;;;;;13.40;2.83;;;;;;;5.53;100.00;100687.22;5143194;28;20134;-85
2021/03/12 01:36:08;;;;;;;13.38;2.17;;;;;;;5.48;100.00;100677.97;5145882;28;20065;-85
2021/03/12 01:38:39;;;;;;;14.05;1.75;;;;;;;5.55;100.00;100695.06;5146191;28;20034;-85
2021/03/12 01:41:10;;;;;;;19.80;2.47;;;;;;;5.51;100.00;100696.31;5140356;28;20026;-84
2021/03/12 01:43:40;;;;;;;11.25;1.73;;;;;;;5.58;100.00;100695.63;5146316;28;20054;-86
2021/03/12 01:46:29;;;;;;;9.93;1.83;;;;;;;5.76;100.00;100694.94;5148096;28;20031;-86
2021/03/12 01:49:02;;;;;;;11.27;3.00;;;;;;;5.80;100.00;100705.19;5146890;28;20076;-88
2021/03/12 01:52:25;;;;;;;12.07;2.63;;;;;;;5.84;100.00;100709.25;5145891;28;20049;-86
2021/03/12 01:55:58;;;;;;;10.45;2.25;;;;;;;5.90;100.00;100694.53;5113805;28;20053;-86
2021/03/12 01:58:29;;;;;;;15.50;2.70;;;;;;;5.84;100.00;100705.75;5077105;28;20075;-86
2021/03/12 02:00:59;;;;;;;23.70;3.33;;;;;;;5.88;100.00;100707.16;5148640;28;20027;-85
2021/03/12 02:03:32;;;;;;;19.45;1.95;;;;;;;6.03;100.00;100710.28;5149512;28;20026;-86
2021/03/12 02:06:04;;;;;;;14.18;1.95;;;;;;;6.01;100.00;100712.22;5150537;28;20027;-85
2021/03/12 02:08:34;;;;;;;15.65;2.60;;;;;;;6.07;100.00;100706.31;5144891;28;20038;-86
2021/03/12 02:11:05;;;;;;;12.32;2.45;;;;;;;6.04;100.00;100703.97;5148253;28;20039;-85
2021/03/12 02:13:41;;;;;;;9.20;1.52;;;;;;;5.96;100.00;100718.81;5148769;28;20032;-86
2021/03/12 02:16:33;;;;;;;13.98;1.90;;;;;;;5.96;100.00;100709.97;5137563;28;20030;-86
2021/03/12 02:19:20;;;;;;;11.85;1.73;;;;;;;5.87;100.00;100711.66;5148446;28;20014;-86
2021/03/12 02:21:55;;;;;;;15.55;1.58;;;;;;;5.86;100.00;100709.09;5147683;28;20490;-86
2021/03/12 02:24:26;;;;;;;;;;;;;;;5.75;100.00;100715.41;5149168;28;20019;-86
2021/03/12 02:27:13;;;;;;;20.50;3.13;;;;;;;5.78;100.00;100714.28;5148653;28;19918;-86
2021/03/12 02:29:47;;;;;;;6.38;1.83;;;;;;;5.64;100.00;100718.19;5149528;28;20486;-86
2021/03/12 02:32:25;;;;;;;14.05;2.20;;;;;;;5.62;100.00;100715.69;5144095;28;20035;-86
2021/03/12 02:34:59;;;;;;;14.93;1.75;;;;;;;5.58;100.00;100711.59;5145052;28;20402;-86
2021/03/12 02:37:32;;;;;;;11.07;1.92;;;;;;;5.60;100.00;100719.44;5143774;28;20391;-86
2021/03/12 02:40:05;;;;;;;12.70;2.05;;;;;;;5.65;100.00;100723.38;5146288;28;20031;-86
2021/03/12 02:42:40;;;;;;;9.10;1.58;;;;;;;5.65;100.00;100725.19;5149846;28;20538;-86
2021/03/12 02:45:12;;;;;;;21.90;2.97;;;;;;;5.57;100.00;100720.56;5149325;28;20132;-86
2021/03/12 02:47:51;;;;;;;14.95;1.88;;;;;;;5.57;100.00;100722.38;5149273;28;20034;-86
2021/03/12 02:50:22;;;;;;;13.40;2.78;;;;;;;5.56;100.00;100723.34;5149539;28;20030;-86
2021/03/12 02:52:53;;;;;;;11.88;2.22;;;;;;;5.49;100.00;100719.56;5148723;28;20033;-86
2021/03/12 02:55:24;;;;;;;12.02;2.20;;;;;;;5.49;100.00;100723.06;5149249;28;20203;-86
2021/03/12 02:57:56;;;;;;;10.85;2.70;;;;;;;5.65;100.00;100728.69;5149023;28;20019;-86
2021/03/12 03:00:27;;;;;;;8.93;1.50;;;;;;;5.59;100.00;100723.09;5148898;28;20449;-86
2021/03/12 03:02:58;;;;;;;14.57;1.98;;;;;;;5.58;100.00;100724.06;5152574;28;20430;-86
2021/03/12 03:05:30;;;;;;;23.25;3.38;;;;;;;5.53;100.00;100720.97;5152452;28;20074;-86
2021/03/12 03:08:01;;;;;;;13.98;2.47;;;;;;;5.52;100.00;100720.09;5151115;28;20122;-86
2021/03/12 03:10:32;;;;;;;20.90;2.78;;;;;;;5.36;100.00;100719.78;5146799;28;20093;-86
2021/03/12 03:13:03;;;;;;;14.88;2.42;;;;;;;5.36;100.00;100717.97;5146658;28;20047;-86
2021/03/12 03:15:35;;;;;;;9.70;1.83;;;;;;;5.35;100.00;100723.44;5147027;28;20118;-86
2021/03/12 03:18:07;;;;;;;20.58;2.05;;;;;;;5.32;100.00;100716.59;5138094;28;20031;-86
2021/03/12 03:20:38;;;;;;;15.02;2.17;;;;;;;5.30;100.00;100729.16;5163877;28;20030;-86
2021/03/12 03:23:10;;;;;;;20.88;2.70;;;;;;;5.27;100.00;100729.44;5146466;28;20030;-86
2021/03/12 03:25:41;;;;;;;14.73;2.03;;;;;;;5.26;100.00;100741.03;5146061;28;20030;-86
2021/03/12 03:28:11;;;;;;;15.82;2.35;;;;;;;5.31;100.00;100737.97;5145835;28;20027;-86
2021/03/12 03:30:41;;;;;;;19.15;2.28;;;;;;;5.36;100.00;100738.41;5145569;28;20038;-86
2021/03/12 03:33:12;;;;;;;11.90;2.00;;;;;;;5.36;100.00;100733.09;5145842;28;20022;-85
2021/03/12 03:35:43;;;;;;;12.15;1.83;;;;;;;5.37;100.00;100727.66;5160214;28;20022;-86
2021/03/12 03:38:13;;;;;;;24.13;2.70;;;;;;;5.28;100.00;100728.47;5145113;28;20106;-85
2021/03/12 03:40:44;;;;;;;13.32;2.05;;;;;;;5.26;100.00;100735.72;5145524;28;20019;-86
2021/03/12 03:43:17;;;;;;;12.80;1.95;;;;;;;5.12;100.00;100736.09;5144057;28;20027;-86
2021/03/12 03:45:48;;;;;;;20.98;2.30;;;;;;;5.14;100.00;100737.66;5146370;28;20019;-86
2021/03/12 03:48:21;;;;;;;16.52;2.33;;;;;;;5.05;100.00;100740.25;5146223;28;20041;-86
2021/03/12 03:50:52;;;;;;;13.73;1.80;;;;;;;4.99;100.00;100738.13;5145370;28;20026;-86
2021/03/12 03:53:22;;;;;;;18.63;2.75;;;;;;;4.94;100.00;100743.84;5144109;28;20031;-86
2021/03/12 03:55:53;;;;;;;17.35;2.67;;;;;;;4.96;100.00;100749.88;5145741;28;20038;-86
2021/03/12 03:58:26;;;;;;;13.68;2.90;;;;;;;5.00;100.00;100738.00;5145690;28;20482;-86
2021/03/12 04:00:57;;;;;;;17.33;2.30;;;;;;;5.15;100.00;100744.66;5158297;28;20026;-86
2021/03/12 04:03:28;;;;;;;14.13;2.60;;;;;;;5.24;100.00;100737.69;5140536;28;20026;-86
2021/03/12 04:06:00;;;;;;;26.40;2.20;;;;;;;5.28;100.00;100755.06;5141780;28;20462;-86
2021/03/12 04:08:31;;;;;;;18.80;2.33;;;;;;;5.23;100.00;100757.28;5144181;28;20398;-85
2021/03/12 04:11:02;;;;;;;12.27;2.25;;;;;;;5.27;100.00;100748.06;5144738;28;20027;-86
2021/03/12 04:13:33;;;;;;;14.00;1.77;;;;;;;5.23;100.00;100746.66;5139392;28;20057;-86
2021/03/12 04:16:04;;;;;;;18.65;2.20;;;;;;;5.34;100.00;100751.88;5144621;28;20030;-86
2021/03/12 04:18:35;;;;;;;16.42;2.40;;;;;;;5.29;100.00;100742.59;5143693;28;20043;-86
2021/03/12 04:21:07;;;;;;;19.70;2.50;;;;;;;5.29;100.00;100738.13;5145159;28;20019;-86
2021/03/12 04:23:37;;;;;;;16.88;2.05;;;;;;;5.33;100.00;100757.31;5145088;28;20545;-86
2021/03/12 04:26:09;;;;;;;22.52;2.58;;;;;;;5.28;100.00;100752.41;5144861;28;20172;-86
2021/03/12 04:28:40;;;;;;;20.92;2.08;;;;;;;5.24;100.00;100755.47;5144790;28;20042;-86
2021/03/12 04:31:11;;;;;;;14.05;2.03;;;;;;;5.20;100.00;100749.56;5144255;28;20026;-86
2021/03/12 04:33:42;;;;;;;24.35;4.53;;;;;;;5.16;100.00;100764.09;5144706;28;20023;-86
2021/03/12 04:36:14;;;;;;;23.55;3.22;;;;;;;5.18;100.00;100762.16;5159872;28;20457;-86
2021/03/12 04:38:45;;;;;;;23.00;2.50;;;;;;;5.25;100.00;100759.81;5144574;28;20023;-85
2021/03/12 04:41:16;;;;;;;22.42;2.92;;;;;;;5.29;100.00;100762.06;5143860;28;20447;-86
2021/03/12 04:43:47;;;;;;;19.05;4.05;;;;;;;5.29;100.00;100769.22;5144628;28;20031;-86
2021/03/12 04:46:18;;;;;;;18.10;2.60;;;;;;;5.28;100.00;100759.56;5143425;28;20034;-86
2021/03/12 04:48:49;;;;;;;20.15;2.95;;;;;;;5.21;100.00;100759.22;5144518;28;20442;-86
2021/03/12 04:51:20;;;;;;;24.30;3.53;;;;;;;5.25;100.00;100768.63;5143851;28;20031;-86
2021/03/12 04:53:51;;;;;;;25.60;3.60;;;;;;;5.23;100.00;100769.75;5144370;28;20534;-86
2021/03/12 04:56:21;;;;;;;26.08;3.10;;;;;;;5.16;100.00;100775.56;5144411;28;20054;-86
2021/03/12 04:58:52;;;;;;;27.15;3.53;;;;;;;5.12;100.00;100768.88;5144252;28;20498;-86
2021/03/12 05:01:23;;;;;;;27.25;3.03;;;;;;;5.08;100.00;100769.25;5156622;28;20109;-86
2021/03/12 05:03:55;;;;;;;16.92;2.90;;;;;;;5.04;100.00;100781.97;5144861;28;20078;-86
2021/03/12 05:06:25;;;;;;;21.40;3.08;;;;;;;4.95;100.00;100774.78;5131432;28;20390;-86
2021/03/12 05:08:57;;;;;;;19.00;3.03;;;;;;;4.86;100.00;100778.22;5143895;28;20027;-85
2021/03/12 05:11:28;;;;;;;23.92;3.45;;;;;;;4.80;100.00;100779.59;5143540;28;20032;-86
2021/03/12 05:13:58;;;;;;;23.58;3.22;;;;;;;4.78;100.00;100778.88;5144010;28;20031;-86
2021/03/12 05:16:28;;;;;;;26.65;4.38;;;;;;;4.67;100.00;100773.66;5142964;28;20107;-86
2021/03/12 05:18:59;;;;;;;21.98;4.15;;;;;;;4.72;100.00;100776.75;5143149;28;20434;-86
2021/03/12 05:21:30;;;;;;;17.75;2.53;;;;;;;4.62;100.00;100778.50;5143654;28;20458;-86
2021/03/12 05:24:01;;;;;;;28.48;3.33;;;;;;;4.57;100.00;100770.09;5158361;28;20482;-86
2021/03/12 05:26:31;;;;;;;23.58;6.07;;;;;;;4.56;100.00;100776.34;5144027;28;20030;-86
2021/03/12 05:29:02;;;;;;;23.88;3.40;;;;;;;4.51;100.00;100775.88;5143561;28;20387;-86
2021/03/12 05:31:32;;;;;;;26.33;3.85;;;;;;;4.59;100.00;100776.09;5143141;28;20035;-86
2021/03/12 05:34:03;;;;;;;23.85;3.85;;;;;;;4.58;100.00;100777.06;5143850;28;20030;-86
2021/03/12 05:36:38;;;;;;;19.45;2.65;;;;;;;4.59;100.00;100784.06;5144071;28;20042;-85
2021/03/12 05:39:08;;;;;;;19.40;3.03;;;;;;;4.54;100.00;100776.47;5143683;28;20501;-86
2021/03/12 05:41:39;;;;;;;29.00;4.45;;;;;;;4.52;100.00;100762.50;5143125;28;20084;-86
2021/03/12 05:44:10;;;;;;;20.17;3.03;;;;;;;4.59;100.00;100776.09;5143831;28;20026;-86
2021/03/12 05:46:41;;;;;;;24.88;3.63;;;;;;;4.55;100.00;100778.16;5142764;28;20032;-86
2021/03/12 05:49:14;;;;;;;25.63;3.47;;;;;;;4.57;100.00;100778.06;5142315;28;20023;-86
2021/03/12 05:51:44;;;;;;;29.92;3.13;;;;;;;4.61;100.00;100779.47;5143033;28;20078;-86
2021/03/12 05:54:15;;;;;;;23.38;4.03;;;;;;;4.58;100.00;100769.94;5139534;28;20035;-86
2021/03/12 05:56:45;;;;;;;22.95;3.42;;;;;;;4.63;100.00;100782.84;5143922;28;20022;-86
2021/03/12 05:59:16;;;;;;;23.02;2.80;;;;;;;4.70;100.00;100767.22;5143177;28;20035;-86
2021/03/12 06:01:46;;;;;;;37.83;3.88;;;;;;;4.73;100.00;100775.78;5154227;28;20546;-86
2021/03/12 06:04:17;;;;;;;21.15;2.85;;;;;;;4.71;100.00;100767.06;5143740;28;20442;-85
2021/03/12 06:06:47;;;;;;;25.95;3.17;;;;;;;4.75;100.00;100767.66;5143632;28;20034;-85
2021/03/12 06:09:18;;;;;;;20.58;3.53;;;;;;;4.83;100.00;100771.38;5123092;29;20031;-84
2021/03/12 06:11:53;;;;;;;26.75;2.92;;;;;;;4.81;100.00;100785.75;5134993;28;20074;-84
2021/03/12 06:14:49;;;;;;;25.45;5.38;;;;;;;4.87;100.00;100766.59;5143741;28;20461;-85
2021/03/12 06:17:40;;;;;;;11.52;2.15;;;;;;;4.84;100.00;100781.00;5144115;28;20027;-84
2021/03/12 06:20:12;;;;;;;23.30;2.53;;;;;;;4.85;100.00;100776.53;5141942;28;20078;-87
2021/03/12 06:22:51;;;;;;;20.13;2.85;;;;;;;4.87;100.00;100783.44;5143418;28;20077;-86
2021/03/12 06:25:29;;;;;;;29.80;3.15;;;;;;;4.92;100.00;100780.38;5143020;28;20035;-85
2021/03/12 06:28:13;;;;;;;29.17;3.75;;;;;;;4.93;100.00;100790.88;5143664;28;20049;-86
2021/03/12 06:30:44;;;;;;;22.75;4.60;;;;;;;4.99;100.00;100784.19;5142712;28;20398;-86
2021/03/12 06:33:29;;;;;;;27.83;5.97;;;;;;;4.99;100.00;100786.84;5142882;28;20517;-85
2021/03/12 06:36:03;;;;;;;26.55;3.30;;;;;;;4.98;100.00;100779.00;5144437;28;20034;-85
2021/03/12 06:38:34;;;;;;;24.55;3.35;;;;;;;5.00;100.00;100777.03;5126293;28;20074;-85
2021/03/12 06:41:04;;;;;;;26.13;3.40;;;;;;;5.03;100.00;100777.63;5138367;28;20394;-88
2021/03/12 06:43:36;;;;;;;18.92;2.60;;;;;;;5.04;100.00;100781.13;5145943;28;20423;-87
2021/03/12 06:46:06;;;;;;;22.27;3.08;;;;;;;5.04;100.00;100778.47;5146865;28;20081;-87
2021/03/12 06:48:37;;;;;;;28.92;4.05;;;;;;;5.10;100.00;100794.72;5146765;28;20034;-86
2021/03/12 06:51:14;;;;;;;19.10;2.92;;;;;;;5.15;100.00;100773.06;5146531;28;20544;-86
2021/03/12 06:53:45;;;;;;;23.33;3.03;;;;;;;5.20;100.00;100778.81;5146393;28;20387;-86
2021/03/12 06:56:28;;;;;;;20.63;3.80;;;;;;;5.27;100.00;100780.00;5147266;28;20026;-88
2021/03/12 06:59:01;;;;;;;23.38;3.58;;;;;;;5.34;100.00;100778.47;5146538;28;20505;-87
2021/03/12 07:01:32;;;;;;;25.52;3.53;;;;;;;5.43;100.00;100776.81;5146242;28;20075;-86
2021/03/12 07:04:11;;;;;;;22.95;3.28;;;;;;;5.53;100.00;100779.53;5146560;28;20058;-87
2021/03/12 07:06:44;;;;;;;22.88;3.53;;;;;;;5.59;100.00;100773.66;5146916;28;20034;-86
2021/03/12 07:09:15;;;;;;;23.15;3.08;;;;;;;5.62;100.00;100768.03;5144974;28;20022;-86
2021/03/12 07:11:53;;;;;;;14.45;3.25;;;;;;;5.71;100.00;100773.38;5145966;28;20121;-86
2021/03/12 07:14:26;;;;;;;17.58;3.35;;;;;;;5.77;100.00;100768.50;5146224;28;20430;-86
2021/03/12 07:16:57;;;;;;;28.48;3.92;;;;;;;5.81;100.00;100773.41;5146480;28;20041;-86
2021/03/12 07:19:29;;;;;;;32.55;3.65;;;;;;;5.87;100.00;100770.22;5146054;28;20073;-87
2021/03/12 07:22:00;;;;;;;21.88;4.60;;;;;;;5.96;100.00;100769.41;5145731;28;20031;-86
2021/03/12 07:24:32;;;;;;;21.00;3.80;;;;;;;5.97;100.00;100775.56;5146084;28;20031;-87
2021/03/12 07:27:04;;;;;;;44.10;6.00;;;;;;;6.04;100.00;100765.22;5146409;28;20019;-87
2021/03/12 07:29:36;;;;;;;23.17;4.22;;;;;;;6.05;100.00;100773.06;5141010;28;20024;-87
2021/03/12 07:32:08;;;;;;;21.23;3.45;;;;;;;6.05;100.00;100769.56;5143762;28;20192;-86
2021/03/12 07:34:39;;;;;;;29.13;3.88;;;;;;;6.10;100.00;100769.97;5141095;28;20417;-87
2021/03/12 07:37:10;;;;;;;20.42;3.80;;;;;;;6.14;100.00;100768.72;5146295;28;20098;-88
2021/03/12 07:39:43;;;;;;;25.60;3.58;;;;;;;6.16;100.00;100772.91;5145988;28;20062;-88
2021/03/12 07:42:18;;;;;;;30.00;4.03;;;;;;;6.21;100.00;100773.34;5144500;28;20102;-87
2021/03/12 07:44:52;;;;;;;26.65;3.58;;;;;;;6.25;100.00;100775.75;5148058;28;20411;-86
2021/03/12 07:47:26;;;;;;;23.53;3.63;;;;;;;6.24;100.00;100766.91;5143562;28;20018;-87
2021/03/12 07:50:26;;;;;;;24.15;5.07;;;;;;;6.27;100.00;100771.09;5144992;28;20054;-86
2021/03/12 07:53:06;;;;;;;15.27;3.63;;;;;;;6.34;100.00;100775.75;5140076;28;20043;-86
2021/03/12 07:59:49;;;;;;;29.83;3.80;;;;;;;6.59;100.00;100782.31;5085243;28;20028;-87
2021/03/12 08:02:23;;;;;;;23.55;4.00;;;;;;;6.64;100.00;100787.22;5159273;28;20482;-87
2021/03/12 08:04:53;;;;;;;29.08;3.33;;;;;;;6.63;100.00;100782.88;5144758;28;20038;-87
2021/03/12 08:07:24;;;;;;;22.25;3.55;;;;;;;6.75;100.00;100793.22;5125258;28;20507;-86
2021/03/12 08:09:56;;;;;;;18.42;3.30;;;;;;;6.74;100.00;100780.91;5144139;28;20161;-85
2021/03/12 08:12:41;;;;;;;28.55;3.72;;;;;;;6.89;100.00;100793.78;5143657;28;20030;-84
2021/03/12 08:15:20;;;;;;;19.23;3.47;;;;;;;6.90;100.00;100790.97;5143060;28;20034;-84
2021/03/12 08:18:00;;;;;;;24.50;3.78;;;;;;;6.95;100.00;100788.72;5130371;28;20027;-85
2021/03/12 08:20:39;;;;;;;14.05;3.38;;;;;;;6.92;100.00;100798.81;5143047;28;20035;-85
2021/03/12 08:23:14;;;;;;;27.67;4.35;;;;;;;6.92;100.00;100798.81;5144279;28;20113;-85
2021/03/12 08:25:47;;;;;;;24.63;3.95;;;;;;;7.08;100.00;100792.88;5143969;28;20030;-85
2021/03/12 08:28:18;;;;;;;25.52;3.53;;;;;;;7.10;100.00;100791.75;5158705;28;20416;-87
2021/03/12 08:30:50;;;;;;;30.83;6.35;;;;;;;7.13;100.00;100795.94;5142503;28;20031;-86
2021/03/12 08:33:20;;;;;;;26.83;3.92;;;;;;;7.26;100.00;100772.47;5144202;28;20070;-86
2021/03/12 08:35:52;;;;;;;25.67;3.97;;;;;;;7.34;100.00;100780.59;5143852;28;20070;-86
2021/03/12 08:38:23;;;;;;;33.30;6.05;;;;;;;7.36;100.00;100780.44;5144049;28;20050;-86
2021/03/12 08:41:00;;;;;;;16.73;2.88;;;;;;;7.20;100.00;100768.53;5143275;28;20479;-86
2021/03/12 08:43:35;;;;;;;17.65;4.55;;;;;;;7.13;100.00;100782.59;5138686;28;20023;-86
2021/03/12 08:46:16;;;;;;;32.05;4.03;;;;;;;7.22;100.00;100787.06;5135865;28;20486;-86
2021/03/12 08:48:48;;;;;;;27.85;4.00;;;;;;;7.13;100.00;100779.94;5131517;28;20125;-86
2021/03/12 08:51:20;;;;;;;24.42;4.10;;;;;;;7.15;100.00;100777.97;5141566;28;20426;-86
2021/03/12 08:54:00;;;;;;;21.35;3.47;;;;;;;7.00;100.00;100773.09;5158583;28;20035;-86
2021/03/12 08:56:34;;;;;;;25.45;3.45;;;;;;;6.97;100.00;100773.38;5143090;28;20105;-86
2021/03/12 08:59:05;;;;;;;31.02;4.05;;;;;;;7.01;100.00;100776.63;5143090;28;20109;-86
2021/03/12 09:01:36;;;;;;;21.75;4.38;;;;;;;7.04;100.00;100770.16;5154082;28;20166;-86
2021/03/12 09:04:07;;;;;;;20.52;3.35;;;;;;;7.12;100.00;100756.91;5142146;28;20031;-85
2021/03/12 09:06:37;;;;;;;20.90;5.10;;;;;;;6.99;100.00;100771.44;5143023;28;20041;-85
2021/03/12 09:09:09;;;;;;;22.30;3.90;;;;;;;6.98;100.00;100767.09;5157975;28;20034;-85
2021/03/12 09:11:39;;;;;;;24.10;3.70;;;;;;;7.01;100.00;100753.44;5141487;28;20589;-87
2021/03/12 09:14:12;;;;;;;20.10;4.43;;;;;;;7.19;100.00;100752.69;5141967;28;20035;-86
2021/03/12 09:16:42;;;;;;;20.60;3.42;;;;;;;7.15;100.00;100741.47;5142835;28;20042;-86
2021/03/12 09:19:14;;;;;;;19.10;3.45;;;;;;;7.19;100.00;100737.53;5138114;28;20422;-85
2021/03/12 09:21:44;;;;;;;22.27;4.20;;;;;;;7.26;100.00;100732.44;5136113;28;20023;-86
2021/03/12 09:24:17;;;;;;;22.08;3.60;;;;;;;7.31;100.00;100724.81;5143118;28;20390;-85
2021/03/12 09:26:48;;;;;;;26.45;4.45;;;;;;;7.34;100.00;100739.72;5139376;28;20034;-86
2021/03/12 09:29:20;;;;;;;32.13;4.07;;;;;;;7.52;100.00;100725.41;5143101;28;20032;-86
2021/03/12 09:31:51;;;;;;;24.13;4.60;;;;;;;7.69;100.00;100722.94;5141197;28;20035;-86
2021/03/12 09:34:24;;;;;;;26.88;4.00;;;;;;;7.78;100.00;100722.00;5137745;28;20514;-85
2021/03/12 09:36:54;;;;;;;22.45;3.30;;;;;;;7.89;100.00;100720.97;5139869;28;20027;-85
2021/03/12 09:39:30;;;;;;;19.05;3.45;;;;;;;7.87;100.00;100722.94;5126053;28;20398;-85
2021/03/12 09:42:03;;;;;;;25.52;3.70;;;;;;;7.91;100.00;100727.81;5142703;28;20026;-85
2021/03/12 09:44:35;;;;;;;21.05;3.58;;;;;;;7.85;100.00;100720.44;5141530;28;20405;-84
2021/03/12 09:47:09;;;;;;;26.67;5.40;;;;;;;7.79;100.00;100729.06;5157861;28;20030;-85
2021/03/12 09:49:42;;;;;;;18.95;3.63;;;;;;;7.76;100.00;100724.00;5156624;28;20027;-85
2021/03/12 09:52:15;;;;;;;20.13;3.50;;;;;;;7.78;100.00;100725.53;5142367;28;20027;-85
2021/03/12 09:54:46;;;;;;;26.27;4.60;;;;;;;7.93;100.00;100707.16;5157485;28;20035;-86
2021/03/12 09:57:19;;;;;;;18.73;2.92;;;;;;;8.28;100.00;100710.78;5121492;29;20035;-85
2021/03/12 09:59:50;;;;;;;24.60;3.13;;;;;;;8.53;100.00;100702.00;5141672;28;20069;-85
2021/03/12 10:02:21;;;;;;;17.73;3.58;;;;;;;8.61;100.00;100700.38;5157389;28;20077;-85
2021/03/12 10:09:03;;;;;;;17.52;3.08;;;;;;;8.87;100.00;100697.69;5087156;28;20035;-87
2021/03/12 10:11:45;;;;;;;15.50;2.83;;;;;;;8.94;100.00;100693.41;5145883;28;20027;-87
2021/03/12 10:14:32;;;;;;;20.08;3.50;;;;;;;8.98;100.00;100687.53;5146261;28;20054;-88
2021/03/12 10:17:07;;;;;;;19.58;3.83;;;;;;;8.94;100.00;100696.91;5146475;28;20061;-86
2021/03/12 10:19:40;;;;;;;23.38;3.30;;;;;;;8.99;100.00;100691.09;5146032;28;20090;-86
2021/03/12 10:22:15;;;;;;;21.17;2.95;;;;;;;9.16;100.00;100686.63;5146141;28;20042;-85
2021/03/12 10:24:54;;;;;;;21.77;4.15;;;;;;;9.02;100.00;100688.06;5146037;28;20062;-88
2021/03/12 10:27:27;;;;;;;18.58;2.88;;;;;;;9.12;100.00;100671.88;5146678;28;20498;-88
2021/03/12 10:30:39;;;;;;;21.25;2.95;;;;;;;9.26;100.00;100682.81;5159403;28;20035;-86
2021/03/12 10:33:18;;;;;;;18.35;3.78;;;;;;;9.07;100.00;100667.84;5129959;28;20031;-86
2021/03/12 10:36:02;;;;;;;16.48;3.03;;;;;;;9.09;100.00;100659.69;5145795;28;20404;-87
2021/03/12 10:38:43;;;;;;;22.77;3.45;;;;;;;9.10;100.00;100676.56;5145332;28;20442;-87
2021/03/12 10:41:26;;;;;;;16.60;2.38;;;;;;;8.98;100.00;100657.28;5139511;28;20545;-86
2021/03/12 10:44:46;;;;;;;21.17;3.20;;;;;;;9.02;100.00;100666.66;5139376;28;20034;-87
2021/03/12 10:47:29;;;;;;;14.43;2.60;;;;;;;8.85;100.00;100657.72;5125260;28;20726;-88
2021/03/12 10:50:17;;;;;;;14.90;2.20;;;;;;;9.00;100.00;100650.78;5145333;28;20105;-87
2021/03/12 10:52:54;;;;;;;17.67;2.90;;;;;;;8.99;100.00;100637.56;5145416;28;20026;-86
2021/03/12 10:55:34;;;;;;;19.27;2.58;;;;;;;9.04;100.00;100624.53;5135613;28;20402;-86
2021/03/12 10:58:12;;;;;;;22.35;3.90;;;;;;;8.83;100.00;100643.66;5158077;28;20022;-87
2021/03/12 11:01:06;;;;;;;24.65;3.20;;;;;;;8.86;100.00;100637.16;5130468;28;20023;-86
2021/03/12 11:03:42;;;;;;;19.92;2.83;;;;;;;8.70;100.00;100633.41;5151055;28;20026;-87
2021/03/12 11:06:38;;;;;;;;;;;;;;;;;;;;;
2021/03/12 11:09:19;;;;;;;17.77;2.72;;;;;;;8.74;100.00;100633.94;5141465;28;20025;-86
2021/03/12 11:12:00;;;;;;;16.98;3.83;;;;;;;8.84;100.00;100615.09;5145184;28;20031;-87
2021/03/12 11:14:41;;;;;;;15.98;2.75;;;;;;;8.78;100.00;100619.22;5143730;28;20039;-86
2021/03/12 11:17:15;;;;;;;20.65;2.85;;;;;;;8.90;100.00;100623.31;5141630;28;20047;-87
2021/03/12 11:19:51;;;;;;;17.40;2.63;;;;;;;8.81;100.00;100617.06;5158643;28;20057;-86
2021/03/12 11:22:29;;;;;;;17.95;3.88;;;;;;;8.82;100.00;100623.25;5138248;28;20047;-86
2021/03/12 11:25:11;;;;;;;8.40;1.90;;;;;;;8.75;100.00;100614.22;5140116;28;20256;-86
2021/03/12 11:27:48;;;;;;;17.20;3.10;;;;;;;8.75;100.00;100619.56;5139881;28;20027;-86
2021/03/12 11:30:20;;;;;;;24.13;3.05;;;;;;;8.80;100.00;100604.72;5139569;28;20037;-86
2021/03/12 11:32:54;;;;;;;37.70;6.93;;;;;;;8.81;100.00;100617.06;5139792;28;20062;-87
2021/03/12 11:35:38;;;;;;;17.45;2.53;;;;;;;8.71;100.00;100604.81;5143106;28;20386;-87
2021/03/12 11:38:17;;;;;;;17.08;3.63;;;;;;;8.62;100.00;100603.94;5139222;28;20490;-86
2021/03/12 11:40:58;;;;;;;27.42;3.30;;;;;;;8.60;100.00;100597.94;5144166;28;20529;-86
2021/03/12 11:43:29;;;;;;;16.45;2.72;;;;;;;8.64;100.00;100585.91;5159870;28;20027;-86
2021/03/12 11:45:59;;;;;;;21.95;3.67;;;;;;;8.75;100.00;100571.41;5144555;28;20045;-86
2021/03/12 11:48:30;;;;;;;20.52;3.35;;;;;;;8.74;100.00;100581.28;5144323;28;20460;-86
2021/03/12 11:51:03;;;;;;;15.60;3.22;;;;;;;8.78;100.00;100568.41;5143807;28;20031;-87
2021/03/12 11:53:35;;;;;;;18.77;3.45;;;;;;;8.72;100.00;100567.22;5132565;28;20040;-87
2021/03/12 11:56:32;;;;;;;28.30;3.33;;;;;;;8.83;100.00;100563.41;5156259;28;20094;-91
2021/03/12 12:02:18;;;;;;;22.02;3.65;;;;;;;9.33;100.00;100536.59;5136563;28;20481;-88